Flight Track Log - Related Links

Times and Time Zones

All times are in EDT time to prevent confusion due to time zone crossing. See the LYM1725 flight status page for this flight to view local times or setup timezone preferences in your user account.

Time Position Orientation Groundspeed Altitude Reporting Facility
EDT Latitude Longitude Course Direction KTS MPH feet Rate Location/Type
Sat 09:23:23 AM 39.9083 -104.7075 341° North 182 209 6,400  Level Denver Center
Sat 09:24:36 AM 39.9614 -104.7319 341° North 198 228 7,800 1,209 Climbing Denver Center
Sat 09:25:37 AM 40.0278 -104.7575 344° North 212 244 9,100 1,131 Climbing Denver Center
Sat 09:26:38 AM 40.0919 -104.7819 344° North 222 255 10,100 942 Climbing Denver Center
Sat 09:27:38 AM 40.1517 -104.8072 342° North 225 259 11,000 942 Climbing Denver Center
Sat 09:28:39 AM 40.2106 -104.8342 341° North 224 258 12,000 1,082 Climbing Denver Center
Sat 09:29:40 AM 40.2664 -104.8611 340° North 215 247 13,200 1,140 Climbing Denver Center
Sat 09:30:40 AM 40.3244 -104.8808 345° North 217 250 14,300 1,041 Climbing Denver Center
Sat 09:31:41 AM 40.3814 -104.9053 342° North 215 247 15,300 836 Climbing Denver Center
Sat 09:32:42 AM 40.4406 -104.9336 340° North 213 245 16,000 393 Climbing Denver Center
Sat 09:33:43 AM 40.5017 -104.9558 345° North 225 259 16,100 99 Climbing Denver Center
Sat 09:34:43 AM 40.5656 -104.9764 346° North 236 272 16,200  Climbing Denver Center
Sat 09:35:44 AM 40.6292 -105.0036 342° North 241 277 16,100 -98 Descending Denver Center
Sat 09:36:45 AM 40.6950 -105.0275 345° North 245 282 16,000  Descending Denver Center
Sat 09:37:46 AM 40.7583 -105.0597 339° North 239 275 16,100  Climbing Denver Center
Sat 09:38:47 AM 40.8081 -105.1097 323° Northwest 236 272 16,000  Descending Denver Center
Sat 09:39:47 AM 40.8658 -105.1758 319° Northwest 242 278 16,100 -446 Climbing Denver Center
Sat 09:40:48 AM 40.9172 -105.2297 322° Northwest 244 281 15,100 -934 Descending Denver Center
Sat 09:41:49 AM 40.9711 -105.2889 320° Northwest 251 289 14,200 -984 Descending Denver Center
Sat 09:42:50 AM 41.0356 -105.3611 320° Northwest 261 300 13,100 -1,033 Descending Denver Center
Sat 09:43:51 AM 41.0894 -105.4261 318° Northwest 266 306 12,100 -984 Descending Denver Center

Login

Don't have an account? Register now (free) for customized features, flight alerts, and more!